sensor_id;sensor_type;location;lat;lon;timestamp;P1;durP1;ratioP1;P2;durP2;ratioP2
6947;SDS011;3513;47.664;9.162;2022-10-17T00:01:11;5.23;;;4.73;;
6947;SDS011;3513;47.664;9.162;2022-10-17T00:03:37;10.40;;;5.10;;
6947;SDS011;3513;47.664;9.162;2022-10-17T00:06:08;7.63;;;4.40;;
6947;SDS011;3513;47.664;9.162;2022-10-17T00:08:36;11.13;;;5.07;;
6947;SDS011;3513;47.664;9.162;2022-10-17T00:11:04;27.20;;;4.30;;
6947;SDS011;3513;47.664;9.162;2022-10-17T00:13:33;10.10;;;5.80;;
6947;SDS011;3513;47.664;9.162;2022-10-17T00:15:59;14.13;;;4.90;;
6947;SDS011;3513;47.664;9.162;2022-10-17T00:18:25;21.13;;;4.70;;
6947;SDS011;3513;47.664;9.162;2022-10-17T00:20:51;7.17;;;4.40;;
6947;SDS011;3513;47.664;9.162;2022-10-17T00:23:17;6.90;;;4.00;;
6947;SDS011;3513;47.664;9.162;2022-10-17T00:25:43;9.67;;;4.73;;
6947;SDS011;3513;47.664;9.162;2022-10-17T00:28:10;6.60;;;4.27;;
6947;SDS011;3513;47.664;9.162;2022-10-17T00:30:36;8.53;;;4.63;;
6947;SDS011;3513;47.664;9.162;2022-10-17T00:33:03;11.00;;;4.13;;
6947;SDS011;3513;47.664;9.162;2022-10-17T00:35:29;12.27;;;4.60;;
6947;SDS011;3513;47.664;9.162;2022-10-17T00:37:55;16.63;;;4.13;;
6947;SDS011;3513;47.664;9.162;2022-10-17T00:40:21;8.63;;;3.57;;
6947;SDS011;3513;47.664;9.162;2022-10-17T00:42:47;7.73;;;5.00;;
6947;SDS011;3513;47.664;9.162;2022-10-17T00:45:23;11.00;;;3.40;;
6947;SDS011;3513;47.664;9.162;2022-10-17T00:47:53;16.70;;;4.43;;
6947;SDS011;3513;47.664;9.162;2022-10-17T00:50:25;15.10;;;4.43;;
6947;SDS011;3513;47.664;9.162;2022-10-17T00:52:52;5.20;;;4.30;;
6947;SDS011;3513;47.664;9.162;2022-10-17T00:55:21;8.83;;;3.83;;
6947;SDS011;3513;47.664;9.162;2022-10-17T00:57:49;10.00;;;4.70;;
6947;SDS011;3513;47.664;9.162;2022-10-17T01:00:15;13.60;;;4.83;;
6947;SDS011;3513;47.664;9.162;2022-10-17T01:02:42;8.80;;;3.93;;
6947;SDS011;3513;47.664;9.162;2022-10-17T01:05:08;15.50;;;5.40;;
6947;SDS011;3513;47.664;9.162;2022-10-17T01:07:35;10.90;;;5.43;;
6947;SDS011;3513;47.664;9.162;2022-10-17T01:10:04;21.70;;;5.47;;
6947;SDS011;3513;47.664;9.162;2022-10-17T01:12:44;7.03;;;4.60;;
6947;SDS011;3513;47.664;9.162;2022-10-17T01:15:28;9.03;;;5.13;;
6947;SDS011;3513;47.664;9.162;2022-10-17T01:21:01;16.27;;;4.03;;
6947;SDS011;3513;47.664;9.162;2022-10-17T01:29:59;6.00;;;4.60;;
6947;SDS011;3513;47.664;9.162;2022-10-17T01:32:50;10.20;;;4.90;;
6947;SDS011;3513;47.664;9.162;2022-10-17T01:35:29;5.37;;;4.80;;
6947;SDS011;3513;47.664;9.162;2022-10-17T01:38:23;6.10;;;3.87;;
6947;SDS011;3513;47.664;9.162;2022-10-17T01:43:39;12.90;;;4.03;;
6947;SDS011;3513;47.664;9.162;2022-10-17T01:46:16;21.00;;;5.33;;
6947;SDS011;3513;47.664;9.162;2022-10-17T01:48:51;25.97;;;5.20;;
6947;SDS011;3513;47.664;9.162;2022-10-17T01:51:22;6.37;;;4.17;;
6947;SDS011;3513;47.664;9.162;2022-10-17T01:53:53;5.83;;;4.20;;
6947;SDS011;3513;47.664;9.162;2022-10-17T01:56:25;9.80;;;4.40;;
6947;SDS011;3513;47.664;9.162;2022-10-17T01:58:56;15.30;;;3.47;;
6947;SDS011;3513;47.664;9.162;2022-10-17T02:01:27;51.53;;;5.67;;
6947;SDS011;3513;47.664;9.162;2022-10-17T02:03:54;53.30;;;5.30;;
6947;SDS011;3513;47.664;9.162;2022-10-17T02:06:24;30.53;;;5.10;;
6947;SDS011;3513;47.664;9.162;2022-10-17T02:08:49;60.90;;;4.93;;
6947;SDS011;3513;47.664;9.162;2022-10-17T02:11:17;4.53;;;3.83;;
6947;SDS011;3513;47.664;9.162;2022-10-17T02:19:40;28.63;;;4.30;;
6947;SDS011;3513;47.664;9.162;2022-10-17T02:22:19;24.43;;;3.93;;
6947;SDS011;3513;47.664;9.162;2022-10-17T02:27:55;59.83;;;7.20;;
6947;SDS011;3513;47.664;9.162;2022-10-17T02:30:34;55.93;;;6.33;;
6947;SDS011;3513;47.664;9.162;2022-10-17T02:33:24;88.90;;;6.40;;
6947;SDS011;3513;47.664;9.162;2022-10-17T02:35:58;119.17;;;7.53;;
6947;SDS011;3513;47.664;9.162;2022-10-17T02:38:28;115.07;;;6.93;;
6947;SDS011;3513;47.664;9.162;2022-10-17T02:40:56;139.17;;;8.50;;
6947;SDS011;3513;47.664;9.162;2022-10-17T02:43:22;135.80;;;10.37;;
6947;SDS011;3513;47.664;9.162;2022-10-17T02:45:48;49.60;;;6.93;;
6947;SDS011;3513;47.664;9.162;2022-10-17T02:56:25;117.53;;;9.20;;
6947;SDS011;3513;47.664;9.162;2022-10-17T02:58:55;48.10;;;7.87;;
6947;SDS011;3513;47.664;9.162;2022-10-17T03:01:23;10.93;;;5.80;;
6947;SDS011;3513;47.664;9.162;2022-10-17T03:03:50;26.13;;;6.27;;
6947;SDS011;3513;47.664;9.162;2022-10-17T03:06:16;59.93;;;8.03;;
6947;SDS011;3513;47.664;9.162;2022-10-17T03:08:41;41.97;;;7.07;;
6947;SDS011;3513;47.664;9.162;2022-10-17T03:11:07;60.63;;;8.13;;
6947;SDS011;3513;47.664;9.162;2022-10-17T03:13:33;77.47;;;7.40;;
6947;SDS011;3513;47.664;9.162;2022-10-17T03:15:58;58.10;;;7.10;;
6947;SDS011;3513;47.664;9.162;2022-10-17T03:18:24;57.70;;;8.93;;
6947;SDS011;3513;47.664;9.162;2022-10-17T03:20:49;17.63;;;7.20;;
6947;SDS011;3513;47.664;9.162;2022-10-17T03:23:15;31.90;;;7.07;;
6947;SDS011;3513;47.664;9.162;2022-10-17T03:25:41;28.07;;;6.73;;
6947;SDS011;3513;47.664;9.162;2022-10-17T03:28:06;12.97;;;7.03;;
6947;SDS011;3513;47.664;9.162;2022-10-17T03:30:33;101.77;;;9.23;;
6947;SDS011;3513;47.664;9.162;2022-10-17T03:32:58;41.13;;;7.90;;
6947;SDS011;3513;47.664;9.162;2022-10-17T03:35:24;44.07;;;8.07;;
6947;SDS011;3513;47.664;9.162;2022-10-17T03:37:51;62.93;;;8.60;;
6947;SDS011;3513;47.664;9.162;2022-10-17T03:40:19;41.23;;;8.57;;
6947;SDS011;3513;47.664;9.162;2022-10-17T03:42:44;70.17;;;11.03;;
6947;SDS011;3513;47.664;9.162;2022-10-17T03:45:10;56.00;;;7.70;;
6947;SDS011;3513;47.664;9.162;2022-10-17T03:47:35;45.50;;;8.33;;
6947;SDS011;3513;47.664;9.162;2022-10-17T03:50:01;50.77;;;7.80;;
6947;SDS011;3513;47.664;9.162;2022-10-17T03:52:27;76.33;;;8.73;;
6947;SDS011;3513;47.664;9.162;2022-10-17T03:54:53;43.87;;;7.93;;
6947;SDS011;3513;47.664;9.162;2022-10-17T03:57:19;58.17;;;7.90;;
6947;SDS011;3513;47.664;9.162;2022-10-17T03:59:45;70.47;;;12.73;;
6947;SDS011;3513;47.664;9.162;2022-10-17T04:02:10;35.17;;;8.17;;
6947;SDS011;3513;47.664;9.162;2022-10-17T04:04:36;122.23;;;12.10;;
6947;SDS011;3513;47.664;9.162;2022-10-17T04:07:02;181.63;;;14.47;;
6947;SDS011;3513;47.664;9.162;2022-10-17T04:09:27;138.70;;;12.30;;
6947;SDS011;3513;47.664;9.162;2022-10-17T04:11:53;168.37;;;14.40;;
6947;SDS011;3513;47.664;9.162;2022-10-17T04:14:18;117.47;;;11.10;;
6947;SDS011;3513;47.664;9.162;2022-10-17T04:19:12;186.43;;;12.40;;
6947;SDS011;3513;47.664;9.162;2022-10-17T04:21:38;144.57;;;12.50;;
6947;SDS011;3513;47.664;9.162;2022-10-17T04:24:04;151.70;;;14.87;;
6947;SDS011;3513;47.664;9.162;2022-10-17T04:26:30;133.73;;;12.83;;
6947;SDS011;3513;47.664;9.162;2022-10-17T04:28:56;80.63;;;10.00;;
6947;SDS011;3513;47.664;9.162;2022-10-17T04:31:21;68.90;;;9.37;;
6947;SDS011;3513;47.664;9.162;2022-10-17T04:33:48;93.50;;;10.50;;
6947;SDS011;3513;47.664;9.162;2022-10-17T04:36:15;45.57;;;8.53;;
6947;SDS011;3513;47.664;9.162;2022-10-17T04:38:42;45.60;;;9.90;;
6947;SDS011;3513;47.664;9.162;2022-10-17T04:41:09;49.83;;;7.63;;
6947;SDS011;3513;47.664;9.162;2022-10-17T04:43:37;27.83;;;9.43;;
6947;SDS011;3513;47.664;9.162;2022-10-17T04:46:05;83.13;;;10.60;;
6947;SDS011;3513;47.664;9.162;2022-10-17T04:48:35;101.53;;;11.13;;
6947;SDS011;3513;47.664;9.162;2022-10-17T04:51:02;63.17;;;9.83;;
6947;SDS011;3513;47.664;9.162;2022-10-17T04:53:31;70.20;;;11.37;;
6947;SDS011;3513;47.664;9.162;2022-10-17T04:55:58;107.90;;;12.00;;
6947;SDS011;3513;47.664;9.162;2022-10-17T04:58:24;151.50;;;14.90;;
6947;SDS011;3513;47.664;9.162;2022-10-17T05:00:52;114.73;;;11.90;;
6947;SDS011;3513;47.664;9.162;2022-10-17T05:03:17;243.17;;;18.57;;
6947;SDS011;3513;47.664;9.162;2022-10-17T05:05:43;231.87;;;17.27;;
6947;SDS011;3513;47.664;9.162;2022-10-17T05:08:09;148.53;;;13.10;;
6947;SDS011;3513;47.664;9.162;2022-10-17T05:10:36;251.83;;;18.33;;
6947;SDS011;3513;47.664;9.162;2022-10-17T05:13:02;334.43;;;23.83;;
6947;SDS011;3513;47.664;9.162;2022-10-17T05:15:29;165.63;;;12.37;;
6947;SDS011;3513;47.664;9.162;2022-10-17T05:17:55;74.33;;;11.07;;
6947;SDS011;3513;47.664;9.162;2022-10-17T05:20:21;130.07;;;14.33;;
6947;SDS011;3513;47.664;9.162;2022-10-17T05:22:47;130.47;;;13.33;;
6947;SDS011;3513;47.664;9.162;2022-10-17T05:25:12;79.23;;;10.73;;
6947;SDS011;3513;47.664;9.162;2022-10-17T05:27:38;36.07;;;9.30;;
6947;SDS011;3513;47.664;9.162;2022-10-17T05:30:04;34.23;;;9.40;;
6947;SDS011;3513;47.664;9.162;2022-10-17T05:32:30;60.43;;;12.50;;
6947;SDS011;3513;47.664;9.162;2022-10-17T05:34:56;20.60;;;9.60;;
6947;SDS011;3513;47.664;9.162;2022-10-17T05:37:22;217.23;;;18.50;;
6947;SDS011;3513;47.664;9.162;2022-10-17T05:39:47;74.50;;;12.13;;
6947;SDS011;3513;47.664;9.162;2022-10-17T05:42:13;51.17;;;11.70;;
6947;SDS011;3513;47.664;9.162;2022-10-17T05:44:39;77.73;;;11.63;;
6947;SDS011;3513;47.664;9.162;2022-10-17T05:47:05;28.97;;;10.50;;
6947;SDS011;3513;47.664;9.162;2022-10-17T05:49:33;98.33;;;13.77;;
6947;SDS011;3513;47.664;9.162;2022-10-17T05:51:59;113.43;;;13.37;;
6947;SDS011;3513;47.664;9.162;2022-10-17T05:54:25;92.87;;;13.57;;
6947;SDS011;3513;47.664;9.162;2022-10-17T05:56:52;186.57;;;15.10;;
6947;SDS011;3513;47.664;9.162;2022-10-17T05:59:18;99.67;;;11.97;;
6947;SDS011;3513;47.664;9.162;2022-10-17T06:01:44;127.50;;;14.10;;
6947;SDS011;3513;47.664;9.162;2022-10-17T06:04:10;77.23;;;11.00;;
6947;SDS011;3513;47.664;9.162;2022-10-17T06:06:36;98.00;;;12.83;;
6947;SDS011;3513;47.664;9.162;2022-10-17T06:09:02;134.43;;;12.43;;
6947;SDS011;3513;47.664;9.162;2022-10-17T06:11:28;57.13;;;11.70;;
6947;SDS011;3513;47.664;9.162;2022-10-17T06:13:54;33.13;;;10.00;;
6947;SDS011;3513;47.664;9.162;2022-10-17T06:16:20;58.53;;;12.63;;
6947;SDS011;3513;47.664;9.162;2022-10-17T06:18:45;92.83;;;12.13;;
6947;SDS011;3513;47.664;9.162;2022-10-17T06:21:11;89.70;;;14.80;;
6947;SDS011;3513;47.664;9.162;2022-10-17T06:23:41;190.23;;;14.73;;
6947;SDS011;3513;47.664;9.162;2022-10-17T06:26:06;144.63;;;12.57;;
6947;SDS011;3513;47.664;9.162;2022-10-17T06:28:32;77.97;;;11.13;;
6947;SDS011;3513;47.664;9.162;2022-10-17T06:30:58;36.57;;;10.80;;
6947;SDS011;3513;47.664;9.162;2022-10-17T06:33:27;89.23;;;12.07;;
6947;SDS011;3513;47.664;9.162;2022-10-17T06:35:53;51.57;;;10.70;;
6947;SDS011;3513;47.664;9.162;2022-10-17T06:38:19;63.23;;;12.60;;
6947;SDS011;3513;47.664;9.162;2022-10-17T06:40:46;186.80;;;16.87;;
6947;SDS011;3513;47.664;9.162;2022-10-17T06:43:12;251.47;;;19.80;;
6947;SDS011;3513;47.664;9.162;2022-10-17T06:45:38;85.90;;;12.53;;
6947;SDS011;3513;47.664;9.162;2022-10-17T06:48:04;133.73;;;13.30;;
6947;SDS011;3513;47.664;9.162;2022-10-17T06:50:30;27.40;;;9.77;;
6947;SDS011;3513;47.664;9.162;2022-10-17T06:52:55;31.13;;;10.67;;
6947;SDS011;3513;47.664;9.162;2022-10-17T06:55:21;34.13;;;10.83;;
6947;SDS011;3513;47.664;9.162;2022-10-17T06:57:47;31.57;;;9.87;;
6947;SDS011;3513;47.664;9.162;2022-10-17T07:00:12;28.80;;;10.00;;
6947;SDS011;3513;47.664;9.162;2022-10-17T07:02:38;20.80;;;10.47;;
6947;SDS011;3513;47.664;9.162;2022-10-17T07:05:04;64.70;;;11.00;;
6947;SDS011;3513;47.664;9.162;2022-10-17T07:07:30;80.90;;;12.47;;
6947;SDS011;3513;47.664;9.162;2022-10-17T07:09:56;45.70;;;10.00;;
6947;SDS011;3513;47.664;9.162;2022-10-17T07:12:22;33.77;;;9.37;;
6947;SDS011;3513;47.664;9.162;2022-10-17T07:14:48;109.40;;;22.40;;
6947;SDS011;3513;47.664;9.162;2022-10-17T07:17:15;74.63;;;13.40;;
6947;SDS011;3513;47.664;9.162;2022-10-17T07:19:41;110.50;;;11.40;;
6947;SDS011;3513;47.664;9.162;2022-10-17T07:22:07;78.37;;;10.80;;
6947;SDS011;3513;47.664;9.162;2022-10-17T07:24:34;96.33;;;12.40;;
6947;SDS011;3513;47.664;9.162;2022-10-17T07:26:59;74.63;;;11.50;;
6947;SDS011;3513;47.664;9.162;2022-10-17T07:29:25;68.10;;;12.30;;
6947;SDS011;3513;47.664;9.162;2022-10-17T07:31:51;91.03;;;12.93;;
6947;SDS011;3513;47.664;9.162;2022-10-17T07:34:17;99.63;;;15.13;;
6947;SDS011;3513;47.664;9.162;2022-10-17T07:36:42;88.53;;;14.70;;
6947;SDS011;3513;47.664;9.162;2022-10-17T07:39:08;72.07;;;11.10;;
6947;SDS011;3513;47.664;9.162;2022-10-17T07:41:34;49.53;;;10.37;;
6947;SDS011;3513;47.664;9.162;2022-10-17T07:44:00;62.57;;;10.10;;
6947;SDS011;3513;47.664;9.162;2022-10-17T07:46:25;74.50;;;10.53;;
6947;SDS011;3513;47.664;9.162;2022-10-17T07:48:51;96.73;;;11.10;;
6947;SDS011;3513;47.664;9.162;2022-10-17T07:51:16;62.47;;;9.30;;
6947;SDS011;3513;47.664;9.162;2022-10-17T07:53:44;63.43;;;10.57;;
6947;SDS011;3513;47.664;9.162;2022-10-17T07:56:09;64.83;;;9.93;;
6947;SDS011;3513;47.664;9.162;2022-10-17T07:58:36;36.57;;;9.30;;
6947;SDS011;3513;47.664;9.162;2022-10-17T08:01:02;61.67;;;9.60;;
6947;SDS011;3513;47.664;9.162;2022-10-17T08:03:30;54.83;;;10.97;;
6947;SDS011;3513;47.664;9.162;2022-10-17T08:05:56;60.67;;;10.30;;
6947;SDS011;3513;47.664;9.162;2022-10-17T08:08:23;17.10;;;9.37;;
6947;SDS011;3513;47.664;9.162;2022-10-17T08:10:48;15.83;;;9.40;;
6947;SDS011;3513;47.664;9.162;2022-10-17T08:13:14;15.77;;;9.97;;
6947;SDS011;3513;47.664;9.162;2022-10-17T08:15:40;106.13;;;13.00;;
6947;SDS011;3513;47.664;9.162;2022-10-17T08:18:05;32.97;;;9.97;;
6947;SDS011;3513;47.664;9.162;2022-10-17T08:20:31;73.13;;;11.47;;
6947;SDS011;3513;47.664;9.162;2022-10-17T08:22:57;37.17;;;9.63;;
6947;SDS011;3513;47.664;9.162;2022-10-17T08:25:22;75.37;;;10.10;;
6947;SDS011;3513;47.664;9.162;2022-10-17T08:27:49;38.33;;;9.20;;
6947;SDS011;3513;47.664;9.162;2022-10-17T08:30:15;44.17;;;9.53;;
6947;SDS011;3513;47.664;9.162;2022-10-17T08:32:41;53.37;;;10.40;;
6947;SDS011;3513;47.664;9.162;2022-10-17T08:35:07;27.87;;;8.90;;
6947;SDS011;3513;47.664;9.162;2022-10-17T08:37:33;44.63;;;9.07;;
6947;SDS011;3513;47.664;9.162;2022-10-17T08:39:59;54.03;;;10.87;;
6947;SDS011;3513;47.664;9.162;2022-10-17T08:42:47;25.43;;;8.90;;
6947;SDS011;3513;47.664;9.162;2022-10-17T08:48:00;94.47;;;13.20;;
6947;SDS011;3513;47.664;9.162;2022-10-17T08:50:35;41.33;;;9.43;;
6947;SDS011;3513;47.664;9.162;2022-10-17T08:53:34;31.43;;;9.87;;
6947;SDS011;3513;47.664;9.162;2022-10-17T08:56:20;28.93;;;9.37;;
6947;SDS011;3513;47.664;9.162;2022-10-17T08:58:59;26.13;;;10.50;;
6947;SDS011;3513;47.664;9.162;2022-10-17T09:09:45;35.07;;;10.53;;
6947;SDS011;3513;47.664;9.162;2022-10-17T09:12:18;116.87;;;11.27;;
6947;SDS011;3513;47.664;9.162;2022-10-17T09:20:21;40.73;;;11.20;;
6947;SDS011;3513;47.664;9.162;2022-10-17T09:22:57;19.00;;;10.10;;
6947;SDS011;3513;47.664;9.162;2022-10-17T09:25:25;18.63;;;10.40;;
6947;SDS011;3513;47.664;9.162;2022-10-17T09:27:53;128.93;;;12.17;;
6947;SDS011;3513;47.664;9.162;2022-10-17T09:30:37;21.87;;;10.40;;
6947;SDS011;3513;47.664;9.162;2022-10-17T09:33:19;45.57;;;9.93;;
6947;SDS011;3513;47.664;9.162;2022-10-17T09:35:49;36.67;;;9.10;;
6947;SDS011;3513;47.664;9.162;2022-10-17T09:38:17;21.00;;;9.20;;
6947;SDS011;3513;47.664;9.162;2022-10-17T09:40:44;58.17;;;11.80;;
6947;SDS011;3513;47.664;9.162;2022-10-17T09:43:14;52.67;;;12.50;;
6947;SDS011;3513;47.664;9.162;2022-10-17T09:45:42;63.40;;;10.37;;
6947;SDS011;3513;47.664;9.162;2022-10-17T09:50:49;14.13;;;9.40;;
6947;SDS011;3513;47.664;9.162;2022-10-17T09:53:17;12.40;;;9.43;;
6947;SDS011;3513;47.664;9.162;2022-10-17T09:55:55;15.90;;;10.30;;
6947;SDS011;3513;47.664;9.162;2022-10-17T09:58:38;48.20;;;12.93;;
6947;SDS011;3513;47.664;9.162;2022-10-17T10:01:14;24.77;;;9.17;;
6947;SDS011;3513;47.664;9.162;2022-10-17T10:03:44;17.40;;;9.90;;
6947;SDS011;3513;47.664;9.162;2022-10-17T10:08:36;18.90;;;10.07;;
6947;SDS011;3513;47.664;9.162;2022-10-17T10:11:13;20.80;;;8.97;;
6947;SDS011;3513;47.664;9.162;2022-10-17T10:13:40;15.40;;;10.67;;
6947;SDS011;3513;47.664;9.162;2022-10-17T10:18:39;13.50;;;9.20;;
6947;SDS011;3513;47.664;9.162;2022-10-17T10:24:02;12.50;;;9.97;;
6947;SDS011;3513;47.664;9.162;2022-10-17T10:26:32;13.30;;;9.80;;
6947;SDS011;3513;47.664;9.162;2022-10-17T10:31:47;18.90;;;9.60;;
6947;SDS011;3513;47.664;9.162;2022-10-17T10:34:23;10.30;;;8.80;;
6947;SDS011;3513;47.664;9.162;2022-10-17T10:36:53;10.90;;;9.07;;
6947;SDS011;3513;47.664;9.162;2022-10-17T10:42:22;13.77;;;8.93;;
6947;SDS011;3513;47.664;9.162;2022-10-17T10:44:48;15.90;;;10.27;;
6947;SDS011;3513;47.664;9.162;2022-10-17T10:47:17;17.87;;;9.60;;
6947;SDS011;3513;47.664;9.162;2022-10-17T10:49:47;10.73;;;9.23;;
6947;SDS011;3513;47.664;9.162;2022-10-17T10:52:30;11.73;;;9.73;;
6947;SDS011;3513;47.664;9.162;2022-10-17T10:55:04;16.17;;;10.33;;
6947;SDS011;3513;47.664;9.162;2022-10-17T10:57:44;12.17;;;9.30;;
6947;SDS011;3513;47.664;9.162;2022-10-17T11:00:18;10.67;;;7.93;;
6947;SDS011;3513;47.664;9.162;2022-10-17T11:15:06;22.03;;;8.00;;
6947;SDS011;3513;47.664;9.162;2022-10-17T11:17:16;12.93;;;6.60;;
6947;SDS011;3513;47.664;9.162;2022-10-17T11:20:09;11.47;;;7.20;;
6947;SDS011;3513;47.664;9.162;2022-10-17T11:22:37;14.53;;;6.93;;
6947;SDS011;3513;47.664;9.162;2022-10-17T11:25:32;9.83;;;6.67;;
6947;SDS011;3513;47.664;9.162;2022-10-17T11:28:00;11.80;;;7.20;;
6947;SDS011;3513;47.664;9.162;2022-10-17T11:30:28;11.70;;;6.50;;
6947;SDS011;3513;47.664;9.162;2022-10-17T11:33:09;10.37;;;7.10;;
6947;SDS011;3513;47.664;9.162;2022-10-17T11:35:40;10.07;;;6.50;;
6947;SDS011;3513;47.664;9.162;2022-10-17T11:41:19;21.17;;;6.70;;
6947;SDS011;3513;47.664;9.162;2022-10-17T11:46:53;8.27;;;6.20;;
6947;SDS011;3513;47.664;9.162;2022-10-17T11:49:30;9.27;;;5.50;;
6947;SDS011;3513;47.664;9.162;2022-10-17T11:54:54;14.63;;;6.60;;
6947;SDS011;3513;47.664;9.162;2022-10-17T12:02:47;11.63;;;6.33;;
6947;SDS011;3513;47.664;9.162;2022-10-17T12:05:47;98.77;;;14.87;;
6947;SDS011;3513;47.664;9.162;2022-10-17T12:13:51;7.00;;;5.60;;
6947;SDS011;3513;47.664;9.162;2022-10-17T12:18:48;10.03;;;5.40;;
6947;SDS011;3513;47.664;9.162;2022-10-17T12:21:56;20.70;;;7.13;;
6947;SDS011;3513;47.664;9.162;2022-10-17T12:24:41;11.33;;;6.40;;
6947;SDS011;3513;47.664;9.162;2022-10-17T12:29:46;12.93;;;6.47;;
6947;SDS011;3513;47.664;9.162;2022-10-17T12:32:12;9.17;;;6.80;;
6947;SDS011;3513;47.664;9.162;2022-10-17T12:34:39;7.60;;;5.67;;
6947;SDS011;3513;47.664;9.162;2022-10-17T12:37:37;8.57;;;4.90;;
6947;SDS011;3513;47.664;9.162;2022-10-17T12:42:58;13.87;;;5.87;;
6947;SDS011;3513;47.664;9.162;2022-10-17T12:48:10;9.03;;;5.17;;
6947;SDS011;3513;47.664;9.162;2022-10-17T12:56:13;13.47;;;6.53;;
6947;SDS011;3513;47.664;9.162;2022-10-17T12:58:47;10.43;;;5.10;;
6947;SDS011;3513;47.664;9.162;2022-10-17T13:01:16;11.07;;;6.10;;
6947;SDS011;3513;47.664;9.162;2022-10-17T13:03:46;5.00;;;4.50;;
6947;SDS011;3513;47.664;9.162;2022-10-17T13:06:15;6.50;;;4.97;;
6947;SDS011;3513;47.664;9.162;2022-10-17T13:08:49;6.57;;;5.57;;
6947;SDS011;3513;47.664;9.162;2022-10-17T13:11:28;10.27;;;5.30;;
6947;SDS011;3513;47.664;9.162;2022-10-17T13:13:59;6.03;;;5.43;;
6947;SDS011;3513;47.664;9.162;2022-10-17T13:18:54;14.67;;;6.07;;
6947;SDS011;3513;47.664;9.162;2022-10-17T13:21:20;9.10;;;6.10;;
6947;SDS011;3513;47.664;9.162;2022-10-17T13:23:45;9.40;;;6.00;;
6947;SDS011;3513;47.664;9.162;2022-10-17T13:26:15;10.67;;;6.70;;
6947;SDS011;3513;47.664;9.162;2022-10-17T13:31:35;6.20;;;4.87;;
6947;SDS011;3513;47.664;9.162;2022-10-17T13:34:04;10.50;;;5.33;;
6947;SDS011;3513;47.664;9.162;2022-10-17T13:36:38;18.30;;;5.63;;
6947;SDS011;3513;47.664;9.162;2022-10-17T13:39:08;10.47;;;5.60;;
6947;SDS011;3513;47.664;9.162;2022-10-17T13:41:38;11.23;;;6.67;;
6947;SDS011;3513;47.664;9.162;2022-10-17T13:44:10;7.70;;;5.60;;
6947;SDS011;3513;47.664;9.162;2022-10-17T13:46:56;6.13;;;5.10;;
6947;SDS011;3513;47.664;9.162;2022-10-17T13:51:48;8.23;;;5.77;;
6947;SDS011;3513;47.664;9.162;2022-10-17T13:54:30;5.60;;;5.00;;
6947;SDS011;3513;47.664;9.162;2022-10-17T13:57:04;21.83;;;4.90;;
6947;SDS011;3513;47.664;9.162;2022-10-17T13:59:41;12.20;;;5.90;;
6947;SDS011;3513;47.664;9.162;2022-10-17T14:02:13;10.87;;;5.40;;
6947;SDS011;3513;47.664;9.162;2022-10-17T14:04:41;9.43;;;5.77;;
6947;SDS011;3513;47.664;9.162;2022-10-17T14:07:13;9.03;;;6.10;;
6947;SDS011;3513;47.664;9.162;2022-10-17T14:09:48;9.37;;;5.90;;
6947;SDS011;3513;47.664;9.162;2022-10-17T14:12:14;7.77;;;4.57;;
6947;SDS011;3513;47.664;9.162;2022-10-17T14:14:41;11.97;;;6.00;;
6947;SDS011;3513;47.664;9.162;2022-10-17T14:17:13;11.20;;;5.50;;
6947;SDS011;3513;47.664;9.162;2022-10-17T14:19:49;6.80;;;5.20;;
6947;SDS011;3513;47.664;9.162;2022-10-17T14:24:47;5.50;;;5.00;;
6947;SDS011;3513;47.664;9.162;2022-10-17T14:32:52;6.53;;;5.40;;
6947;SDS011;3513;47.664;9.162;2022-10-17T14:35:25;12.80;;;4.87;;
6947;SDS011;3513;47.664;9.162;2022-10-17T14:37:51;8.13;;;5.57;;
6947;SDS011;3513;47.664;9.162;2022-10-17T14:40:22;7.50;;;5.67;;
6947;SDS011;3513;47.664;9.162;2022-10-17T14:42:50;6.43;;;5.23;;
6947;SDS011;3513;47.664;9.162;2022-10-17T14:45:22;7.60;;;4.90;;
6947;SDS011;3513;47.664;9.162;2022-10-17T14:47:53;5.30;;;4.80;;
6947;SDS011;3513;47.664;9.162;2022-10-17T14:50:28;19.83;;;5.17;;
6947;SDS011;3513;47.664;9.162;2022-10-17T14:52:59;11.90;;;5.10;;
6947;SDS011;3513;47.664;9.162;2022-10-17T14:55:26;6.67;;;5.30;;
6947;SDS011;3513;47.664;9.162;2022-10-17T14:57:53;31.07;;;6.00;;
6947;SDS011;3513;47.664;9.162;2022-10-17T15:00:20;11.77;;;5.80;;
6947;SDS011;3513;47.664;9.162;2022-10-17T15:02:47;15.33;;;6.50;;
6947;SDS011;3513;47.664;9.162;2022-10-17T15:05:14;5.67;;;5.17;;
6947;SDS011;3513;47.664;9.162;2022-10-17T15:07:40;11.33;;;5.23;;
6947;SDS011;3513;47.664;9.162;2022-10-17T15:13:01;9.90;;;4.90;;
6947;SDS011;3513;47.664;9.162;2022-10-17T15:15:28;5.97;;;4.83;;
6947;SDS011;3513;47.664;9.162;2022-10-17T15:17:55;16.73;;;5.77;;
6947;SDS011;3513;47.664;9.162;2022-10-17T15:20:21;7.23;;;4.83;;
6947;SDS011;3513;47.664;9.162;2022-10-17T15:22:52;10.17;;;4.97;;
6947;SDS011;3513;47.664;9.162;2022-10-17T15:25:18;9.40;;;4.57;;
6947;SDS011;3513;47.664;9.162;2022-10-17T15:27:44;10.60;;;4.30;;
6947;SDS011;3513;47.664;9.162;2022-10-17T15:30:33;8.40;;;5.97;;
6947;SDS011;3513;47.664;9.162;2022-10-17T15:32:57;12.10;;;5.30;;
6947;SDS011;3513;47.664;9.162;2022-10-17T15:35:23;6.27;;;5.10;;
6947;SDS011;3513;47.664;9.162;2022-10-17T15:37:49;15.43;;;6.03;;
6947;SDS011;3513;47.664;9.162;2022-10-17T15:40:16;18.47;;;4.60;;
6947;SDS011;3513;47.664;9.162;2022-10-17T15:42:43;5.73;;;4.47;;
6947;SDS011;3513;47.664;9.162;2022-10-17T15:45:10;5.07;;;4.37;;
6947;SDS011;3513;47.664;9.162;2022-10-17T15:47:36;10.90;;;5.20;;
6947;SDS011;3513;47.664;9.162;2022-10-17T15:50:03;11.23;;;5.80;;
6947;SDS011;3513;47.664;9.162;2022-10-17T15:52:30;5.93;;;5.33;;
6947;SDS011;3513;47.664;9.162;2022-10-17T15:54:56;9.77;;;5.93;;
6947;SDS011;3513;47.664;9.162;2022-10-17T15:57:29;9.10;;;5.83;;
6947;SDS011;3513;47.664;9.162;2022-10-17T15:59:58;12.13;;;6.67;;
6947;SDS011;3513;47.664;9.162;2022-10-17T16:02:24;10.93;;;4.63;;
6947;SDS011;3513;47.664;9.162;2022-10-17T16:04:50;17.00;;;5.90;;
6947;SDS011;3513;47.664;9.162;2022-10-17T16:07:16;7.73;;;4.80;;
6947;SDS011;3513;47.664;9.162;2022-10-17T16:09:43;11.40;;;6.33;;
6947;SDS011;3513;47.664;9.162;2022-10-17T16:12:10;16.97;;;5.60;;
6947;SDS011;3513;47.664;9.162;2022-10-17T16:14:39;8.90;;;6.57;;
6947;SDS011;3513;47.664;9.162;2022-10-17T16:17:04;7.83;;;6.43;;
6947;SDS011;3513;47.664;9.162;2022-10-17T16:19:30;14.40;;;5.80;;
6947;SDS011;3513;47.664;9.162;2022-10-17T16:21:56;7.50;;;5.33;;
6947;SDS011;3513;47.664;9.162;2022-10-17T16:24:22;17.20;;;5.87;;
6947;SDS011;3513;47.664;9.162;2022-10-17T16:26:49;9.23;;;6.37;;
6947;SDS011;3513;47.664;9.162;2022-10-17T16:29:15;21.43;;;8.03;;
6947;SDS011;3513;47.664;9.162;2022-10-17T16:31:41;9.23;;;7.30;;
6947;SDS011;3513;47.664;9.162;2022-10-17T16:34:09;11.80;;;7.33;;
6947;SDS011;3513;47.664;9.162;2022-10-17T16:36:37;8.80;;;6.77;;
6947;SDS011;3513;47.664;9.162;2022-10-17T16:39:03;25.17;;;7.70;;
6947;SDS011;3513;47.664;9.162;2022-10-17T16:41:30;14.77;;;8.07;;
6947;SDS011;3513;47.664;9.162;2022-10-17T16:43:58;15.10;;;8.63;;
6947;SDS011;3513;47.664;9.162;2022-10-17T16:46:26;16.33;;;8.30;;
6947;SDS011;3513;47.664;9.162;2022-10-17T16:48:53;12.93;;;8.30;;
6947;SDS011;3513;47.664;9.162;2022-10-17T16:51:19;13.93;;;7.93;;
6947;SDS011;3513;47.664;9.162;2022-10-17T16:53:46;15.30;;;7.70;;
6947;SDS011;3513;47.664;9.162;2022-10-17T16:56:18;23.63;;;9.70;;
6947;SDS011;3513;47.664;9.162;2022-10-17T16:58:46;13.33;;;8.60;;
6947;SDS011;3513;47.664;9.162;2022-10-17T17:01:14;9.33;;;7.77;;
6947;SDS011;3513;47.664;9.162;2022-10-17T17:03:45;13.63;;;8.67;;
6947;SDS011;3513;47.664;9.162;2022-10-17T17:06:12;8.70;;;7.27;;
6947;SDS011;3513;47.664;9.162;2022-10-17T17:08:40;15.33;;;8.20;;
6947;SDS011;3513;47.664;9.162;2022-10-17T17:11:07;12.80;;;7.30;;
6947;SDS011;3513;47.664;9.162;2022-10-17T17:13:34;9.20;;;7.70;;
6947;SDS011;3513;47.664;9.162;2022-10-17T17:16:07;15.57;;;8.27;;
6947;SDS011;3513;47.664;9.162;2022-10-17T17:18:35;17.87;;;9.63;;
6947;SDS011;3513;47.664;9.162;2022-10-17T17:21:02;13.60;;;8.63;;